createdAt,value
2022-08-21T00:02:17.898Z,20.82
2022-08-21T00:04:54.596Z,20.79
2022-08-21T00:07:20.908Z,20.77
2022-08-21T00:09:50.623Z,20.77
2022-08-21T00:12:20.994Z,20.79
2022-08-21T00:14:52.039Z,20.77
2022-08-21T00:17:24.405Z,20.75
2022-08-21T00:19:54.305Z,20.72
2022-08-21T00:22:25.239Z,20.70
2022-08-21T00:24:54.647Z,20.71
2022-08-21T00:27:24.530Z,20.72
2022-08-21T00:29:54.833Z,20.73
2022-08-21T00:32:25.213Z,20.73
2022-08-21T00:34:55.320Z,20.73
2022-08-21T00:37:25.014Z,20.70
2022-08-21T00:39:55.016Z,20.66
2022-08-21T00:42:24.117Z,20.64
2022-08-21T00:44:54.273Z,20.62
2022-08-21T00:47:23.118Z,20.63
2022-08-21T00:49:53.028Z,20.64
2022-08-21T00:52:25.946Z,20.66
2022-08-21T00:54:57.816Z,20.64
2022-08-21T00:57:39.366Z,20.59
2022-08-21T01:00:12.442Z,20.55
2022-08-21T01:02:41.893Z,20.50
2022-08-21T01:05:11.035Z,20.45
2022-08-21T01:07:42.551Z,20.42
2022-08-21T01:10:21.618Z,20.39
2022-08-21T01:12:45.317Z,20.39
2022-08-21T01:15:16.295Z,20.38
2022-08-21T01:17:46.700Z,20.38
2022-08-21T01:20:17.033Z,20.38
2022-08-21T01:22:46.377Z,20.40
2022-08-21T01:25:20.021Z,20.42
2022-08-21T01:27:50.262Z,20.42
2022-08-21T01:30:27.121Z,20.40
2022-08-21T01:32:57.442Z,20.38
2022-08-21T01:35:27.007Z,20.39
2022-08-21T01:37:56.623Z,20.39
2022-08-21T01:40:25.797Z,20.38
2022-08-21T01:42:56.129Z,20.38
2022-08-21T01:45:26.379Z,20.37
2022-08-21T01:47:56.411Z,20.32
2022-08-21T01:50:26.346Z,20.28
2022-08-21T01:52:56.925Z,20.26
2022-08-21T01:55:26.844Z,20.26
2022-08-21T01:57:56.881Z,20.28
2022-08-21T02:00:26.601Z,20.26
2022-08-21T02:02:56.853Z,20.28
2022-08-21T02:05:26.711Z,20.26
2022-08-21T02:07:56.213Z,20.29
2022-08-21T02:10:29.461Z,20.30
2022-08-21T02:13:00.590Z,20.30
2022-08-21T02:15:32.134Z,20.30
2022-08-21T02:18:02.008Z,20.32
2022-08-21T02:20:35.642Z,20.34
2022-08-21T02:23:05.282Z,20.36
2022-08-21T02:25:36.858Z,20.38
2022-08-21T02:28:09.572Z,20.39
2022-08-21T02:30:43.803Z,20.37
2022-08-21T02:33:14.069Z,20.32
2022-08-21T02:35:43.144Z,20.33
2022-08-21T02:38:16.047Z,20.31
2022-08-21T02:40:48.351Z,20.33
2022-08-21T02:43:19.698Z,20.36
2022-08-21T02:45:49.847Z,20.37
2022-08-21T02:48:22.526Z,20.36
2022-08-21T02:50:58.920Z,20.37
2022-08-21T02:53:29.026Z,20.34
2022-08-21T02:55:59.697Z,20.34
2022-08-21T02:58:33.411Z,20.31
2022-08-21T03:01:03.665Z,20.29
2022-08-21T03:03:35.000Z,20.28
2022-08-21T03:06:06.875Z,20.27
2022-08-21T03:08:38.278Z,20.24
2022-08-21T03:11:07.750Z,20.23
2022-08-21T03:13:39.878Z,20.22
2022-08-21T03:16:12.344Z,20.22
2022-08-21T03:18:41.895Z,20.20
2022-08-21T03:21:11.512Z,20.24
2022-08-21T03:23:42.707Z,20.25
2022-08-21T03:26:12.094Z,20.25
2022-08-21T03:28:41.961Z,20.22
2022-08-21T03:31:12.189Z,20.22
2022-08-21T03:33:43.111Z,20.21
2022-08-21T03:36:13.318Z,20.19
2022-08-21T03:38:42.328Z,20.19
2022-08-21T03:41:13.019Z,20.20
2022-08-21T03:43:45.123Z,20.18
2022-08-21T03:46:15.157Z,20.16
2022-08-21T03:48:45.073Z,20.13
2022-08-21T03:51:16.408Z,20.11
2022-08-21T03:53:45.628Z,20.09
2022-08-21T03:56:16.683Z,20.04
2022-08-21T03:58:46.367Z,20.07
2022-08-21T04:01:16.058Z,20.08
2022-08-21T04:03:45.653Z,20.08
2022-08-21T04:06:14.668Z,20.07
2022-08-21T04:08:43.884Z,20.07
2022-08-21T04:11:15.402Z,20.07
2022-08-21T04:13:45.764Z,20.04
2022-08-21T04:16:15.289Z,20.00
2022-08-21T04:18:44.646Z,20.00
2022-08-21T04:21:13.707Z,20.01
2022-08-21T04:23:43.016Z,20.04
2022-08-21T04:26:13.060Z,20.04
2022-08-21T04:28:42.769Z,20.07
2022-08-21T04:31:14.195Z,20.08
2022-08-21T04:33:44.937Z,20.10
2022-08-21T04:36:14.222Z,20.12
2022-08-21T04:38:44.631Z,20.13
2022-08-21T04:41:14.950Z,20.14
2022-08-21T04:43:45.054Z,20.18
2022-08-21T04:46:14.202Z,20.19
2022-08-21T04:48:43.342Z,20.22
2022-08-21T04:51:25.882Z,20.25
2022-08-21T04:54:15.279Z,20.26
2022-08-21T04:56:57.479Z,20.28
2022-08-21T04:59:33.059Z,20.30
2022-08-21T05:02:04.516Z,20.35
2022-08-21T05:04:35.342Z,20.35
2022-08-21T05:07:08.174Z,20.40
2022-08-21T05:09:38.446Z,20.43
2022-08-21T05:12:08.228Z,20.49
2022-08-21T05:14:38.260Z,20.57
2022-08-21T05:17:07.580Z,20.63
2022-08-21T05:19:36.525Z,20.71
2022-08-21T05:22:05.665Z,20.76
2022-08-21T05:24:36.089Z,20.84
2022-08-21T05:27:07.405Z,20.89
2022-08-21T05:29:37.196Z,20.94
2022-08-21T05:32:11.978Z,20.94
2022-08-21T05:34:41.767Z,20.95
2022-08-21T05:37:13.267Z,20.96
2022-08-21T05:40:20.362Z,20.97
2022-08-21T05:42:14.057Z,21.03
2022-08-21T05:44:43.645Z,21.04
2022-08-21T05:47:16.290Z,21.05
2022-08-21T05:49:46.577Z,21.06
2022-08-21T05:52:21.546Z,21.03
2022-08-21T05:54:51.274Z,21.03
2022-08-21T05:57:21.488Z,21.04
2022-08-21T05:59:51.386Z,21.03
2022-08-21T06:02:21.167Z,21.04
2022-08-21T06:04:50.750Z,21.05
2022-08-21T06:07:20.246Z,21.10
2022-08-21T06:09:50.403Z,21.16
2022-08-21T06:12:20.702Z,21.17
2022-08-21T06:14:52.279Z,21.19
2022-08-21T06:17:22.586Z,21.24
2022-08-21T06:19:55.522Z,21.26
2022-08-21T06:22:25.617Z,21.26
2022-08-21T06:24:55.521Z,21.27
2022-08-21T06:27:26.714Z,21.31
2022-08-21T06:29:58.296Z,21.36
2022-08-21T06:32:27.280Z,21.42
2022-08-21T06:34:57.349Z,21.48
2022-08-21T06:37:28.234Z,21.51
2022-08-21T06:39:57.592Z,21.57
2022-08-21T06:42:29.112Z,21.64
2022-08-21T06:44:59.179Z,21.73
2022-08-21T06:47:29.133Z,21.89
2022-08-21T06:49:58.523Z,22.07
2022-08-21T06:52:28.556Z,22.39
2022-08-21T06:54:58.065Z,22.81
2022-08-21T06:57:28.609Z,23.21
2022-08-21T06:59:59.093Z,23.56
2022-08-21T07:02:28.038Z,23.84
2022-08-21T07:04:57.722Z,23.95
2022-08-21T07:07:27.585Z,23.98
2022-08-21T07:09:57.923Z,23.96
2022-08-21T07:12:28.186Z,23.95
2022-08-21T07:14:59.126Z,24.04
2022-08-21T07:17:29.581Z,24.27
2022-08-21T07:19:58.916Z,24.53
2022-08-21T07:22:28.431Z,24.80
2022-08-21T07:24:58.979Z,25.02
2022-08-21T07:27:29.261Z,25.28
2022-08-21T07:29:59.130Z,25.51
2022-08-21T07:32:28.582Z,25.74
2022-08-21T07:34:57.759Z,25.92
2022-08-21T07:37:27.947Z,26.06
2022-08-21T07:39:58.240Z,26.26
2022-08-21T07:42:28.226Z,26.54
2022-08-21T07:44:58.134Z,26.77
2022-08-21T07:47:41.497Z,26.90
2022-08-21T07:49:58.590Z,27.10
2022-08-21T07:52:31.239Z,27.37
2022-08-21T07:55:05.500Z,27.62
2022-08-21T07:57:32.742Z,27.81
2022-08-21T08:00:04.390Z,27.98
2022-08-21T08:02:37.352Z,28.21
2022-08-21T08:05:09.803Z,28.42
2022-08-21T08:07:38.813Z,28.55
2022-08-21T08:10:09.276Z,28.67
2022-08-21T08:12:40.424Z,28.72
2022-08-21T08:15:13.293Z,28.77
2022-08-21T08:17:43.688Z,28.89
2022-08-21T08:20:14.031Z,28.92
2022-08-21T08:22:43.430Z,28.85
2022-08-21T08:25:14.485Z,28.99
2022-08-21T08:27:46.232Z,29.12
2022-08-21T08:30:16.287Z,29.15
2022-08-21T08:32:46.300Z,29.29
2022-08-21T08:35:15.290Z,29.24
2022-08-21T08:37:46.772Z,29.15
2022-08-21T08:40:36.339Z,29.19
2022-08-21T08:43:07.250Z,29.25
2022-08-21T08:45:39.151Z,29.17
2022-08-21T08:48:14.365Z,29.16
2022-08-21T08:50:57.066Z,29.24
2022-08-21T08:53:36.855Z,29.17
2022-08-21T08:56:06.582Z,29.18
2022-08-21T08:58:40.034Z,29.09
2022-08-21T09:01:17.317Z,29.04
2022-08-21T09:03:49.549Z,29.00
2022-08-21T09:06:36.496Z,28.94
2022-08-21T09:09:23.153Z,28.94
2022-08-21T09:12:22.308Z,28.97
2022-08-21T09:15:22.806Z,28.91
2022-08-21T09:18:12.603Z,28.77
2022-08-21T09:21:02.966Z,28.76
2022-08-21T09:23:43.432Z,28.70
2022-08-21T09:26:18.713Z,28.62
2022-08-21T09:28:49.624Z,28.54
2022-08-21T09:31:33.487Z,28.41
2022-08-21T09:34:05.379Z,28.37
2022-08-21T09:36:47.161Z,28.28
2022-08-21T09:39:31.022Z,28.21
2022-08-21T09:42:05.174Z,28.14
2022-08-21T09:44:41.772Z,28.10
2022-08-21T09:47:12.280Z,28.09
2022-08-21T09:49:43.457Z,28.03
2022-08-21T09:52:19.750Z,27.93
2022-08-21T09:54:52.982Z,27.91
2022-08-21T09:57:46.697Z,27.93
2022-08-21T10:00:27.330Z,27.99
2022-08-21T10:02:58.345Z,28.00
2022-08-21T10:05:28.938Z,27.89
2022-08-21T10:07:58.711Z,27.87
2022-08-21T10:10:31.198Z,27.78
2022-08-21T10:13:15.148Z,27.71
2022-08-21T10:16:34.937Z,27.60
2022-08-21T10:19:15.174Z,27.61
2022-08-21T10:21:58.216Z,27.69
2022-08-21T10:24:32.866Z,27.76
2022-08-21T10:27:19.042Z,27.85
2022-08-21T10:30:16.786Z,27.88
2022-08-21T10:33:06.548Z,27.90
2022-08-21T10:35:53.002Z,27.83
2022-08-21T10:39:07.108Z,27.81
2022-08-21T10:41:59.241Z,27.77
2022-08-21T10:45:12.921Z,27.77
2022-08-21T10:47:49.630Z,27.77
2022-08-21T10:50:26.715Z,27.81
2022-08-21T10:53:38.077Z,27.87
2022-08-21T10:56:23.369Z,27.92
2022-08-21T10:59:28.187Z,27.92
2022-08-21T11:02:36.784Z,27.97
2022-08-21T11:05:28.445Z,27.97
2022-08-21T11:08:15.181Z,27.95
2022-08-21T11:11:01.385Z,27.89
2022-08-21T11:13:50.655Z,27.81
2022-08-21T11:16:42.960Z,27.77
2022-08-21T11:19:38.330Z,27.79
2022-08-21T11:22:18.669Z,27.87
2022-08-21T11:25:13.771Z,27.84
2022-08-21T11:27:57.215Z,27.82
2022-08-21T11:30:28.617Z,27.82
2022-08-21T11:33:26.757Z,27.82
2022-08-21T11:36:16.849Z,27.81
2022-08-21T11:38:54.089Z,27.83
2022-08-21T11:41:40.260Z,27.86
2022-08-21T11:44:37.139Z,27.84
2022-08-21T11:47:46.431Z,27.85
2022-08-21T11:50:34.975Z,27.87
2022-08-21T11:53:03.299Z,27.88
2022-08-21T11:55:46.094Z,27.81
2022-08-21T11:58:37.584Z,27.79
2022-08-21T12:01:13.389Z,27.79
2022-08-21T12:03:47.500Z,27.79
2022-08-21T12:06:24.040Z,27.75
2022-08-21T12:09:00.979Z,27.71
2022-08-21T12:11:31.232Z,27.69
2022-08-21T12:14:12.084Z,27.63
2022-08-21T12:16:46.817Z,27.65
2022-08-21T12:19:30.189Z,27.72
2022-08-21T12:22:07.515Z,27.74
2022-08-21T12:24:49.805Z,27.69
2022-08-21T12:27:31.925Z,27.67
2022-08-21T12:30:04.558Z,27.64
2022-08-21T12:32:46.463Z,27.69
2022-08-21T12:35:25.058Z,27.71
2022-08-21T12:38:18.496Z,27.74
2022-08-21T12:41:04.954Z,27.72
2022-08-21T12:43:42.185Z,27.72
2022-08-21T12:46:21.145Z,27.76
2022-08-21T12:48:53.386Z,27.81
2022-08-21T12:51:51.631Z,27.79
2022-08-21T12:54:29.135Z,27.74
2022-08-21T12:57:05.147Z,27.72
2022-08-21T12:59:36.040Z,27.74
2022-08-21T13:02:07.592Z,27.71
2022-08-21T13:04:40.776Z,27.67
2022-08-21T13:07:13.574Z,27.62
2022-08-21T13:09:50.856Z,27.62
2022-08-21T13:12:21.868Z,27.66
2022-08-21T13:14:51.920Z,27.72
2022-08-21T13:17:23.638Z,27.77
2022-08-21T13:20:24.206Z,27.81
2022-08-21T13:22:54.011Z,27.79
2022-08-21T13:25:30.166Z,27.77
2022-08-21T13:28:07.671Z,27.75
2022-08-21T13:30:44.116Z,27.72
2022-08-21T13:33:15.766Z,27.72
2022-08-21T13:36:02.314Z,27.73
2022-08-21T13:38:36.221Z,27.71
2022-08-21T13:41:19.281Z,27.68
2022-08-21T13:43:53.356Z,27.66
2022-08-21T13:46:23.971Z,27.66
2022-08-21T13:48:53.665Z,27.65
2022-08-21T13:51:25.086Z,27.69
2022-08-21T13:53:56.663Z,27.70
2022-08-21T13:56:45.197Z,27.73
2022-08-21T13:59:34.868Z,27.76
2022-08-21T14:02:20.212Z,27.79
2022-08-21T14:05:00.179Z,27.79
2022-08-21T14:07:39.936Z,27.80
2022-08-21T14:10:16.581Z,27.82
2022-08-21T14:12:55.151Z,27.87
2022-08-21T14:15:29.174Z,27.89
2022-08-21T14:18:18.361Z,27.90
2022-08-21T14:20:48.313Z,27.92
2022-08-21T14:23:27.740Z,27.92
2022-08-21T14:26:04.172Z,27.91
2022-08-21T14:28:37.468Z,27.93
2022-08-21T14:31:20.974Z,27.95
2022-08-21T14:33:51.492Z,28.01
2022-08-21T14:36:22.058Z,28.06
2022-08-21T14:38:54.063Z,28.00
2022-08-21T14:41:26.387Z,27.90
2022-08-21T14:44:05.933Z,27.84
2022-08-21T14:46:30.170Z,27.78
2022-08-21T14:49:00.202Z,27.78
2022-08-21T14:51:29.333Z,27.77
2022-08-21T14:53:58.237Z,27.76
2022-08-21T14:56:27.048Z,27.69
2022-08-21T14:58:57.194Z,27.61
2022-08-21T15:01:28.725Z,27.57
2022-08-21T15:03:58.383Z,27.52
2022-08-21T15:06:28.520Z,27.48
2022-08-21T15:08:58.307Z,27.42
2022-08-21T15:11:41.771Z,27.40
2022-08-21T15:14:01.197Z,27.38
2022-08-21T15:16:32.087Z,27.41
2022-08-21T15:19:02.667Z,27.42
2022-08-21T15:21:33.023Z,27.44
2022-08-21T15:24:03.213Z,27.44
2022-08-21T15:26:32.940Z,27.38
2022-08-21T15:29:02.547Z,27.35
2022-08-21T15:31:34.815Z,27.30
2022-08-21T15:34:04.751Z,27.23
2022-08-21T15:36:35.088Z,27.18
2022-08-21T15:39:05.986Z,27.11
2022-08-21T15:41:35.866Z,27.07
2022-08-21T15:44:05.093Z,27.01
2022-08-21T15:46:35.743Z,26.96
2022-08-21T15:49:06.232Z,26.90
2022-08-21T15:51:35.329Z,26.82
2022-08-21T15:54:07.303Z,26.78
2022-08-21T15:56:39.956Z,26.74
2022-08-21T15:59:17.042Z,26.72
2022-08-21T16:01:46.867Z,26.70
2022-08-21T16:04:21.311Z,26.65
2022-08-21T16:06:54.179Z,26.62
2022-08-21T16:09:23.079Z,26.60
2022-08-21T16:11:55.461Z,26.55
2022-08-21T16:14:25.794Z,26.51
2022-08-21T16:16:56.223Z,26.44
2022-08-21T16:19:27.642Z,26.41
2022-08-21T16:21:58.260Z,26.38
2022-08-21T16:24:28.710Z,26.35
2022-08-21T16:26:58.419Z,26.34
2022-08-21T16:29:31.517Z,26.31
2022-08-21T16:32:01.635Z,26.29
2022-08-21T16:34:31.580Z,26.28
2022-08-21T16:37:01.455Z,26.25
2022-08-21T16:39:32.035Z,26.19
2022-08-21T16:42:01.905Z,26.13
2022-08-21T16:44:34.265Z,26.03
2022-08-21T16:47:05.264Z,25.95
2022-08-21T16:49:35.517Z,25.88
2022-08-21T16:52:14.630Z,25.82
2022-08-21T16:54:42.327Z,25.76
2022-08-21T16:57:12.967Z,25.69
2022-08-21T16:59:43.335Z,25.67
2022-08-21T17:02:33.601Z,25.61
2022-08-21T17:05:03.289Z,25.58
2022-08-21T17:07:36.802Z,25.51
2022-08-21T17:10:06.738Z,25.47
2022-08-21T17:12:38.426Z,25.43
2022-08-21T17:15:21.346Z,25.41
2022-08-21T17:17:51.465Z,25.37
2022-08-21T17:20:21.425Z,25.28
2022-08-21T17:22:50.859Z,25.24
2022-08-21T17:25:22.334Z,25.22
2022-08-21T17:27:52.291Z,25.18
2022-08-21T17:30:21.381Z,25.15
2022-08-21T17:32:53.032Z,25.12
2022-08-21T17:35:23.438Z,25.09
2022-08-21T17:37:54.439Z,25.06
2022-08-21T17:40:25.376Z,25.03
2022-08-21T17:42:58.319Z,25.02
2022-08-21T17:45:28.512Z,25.00
2022-08-21T17:47:57.824Z,24.93
2022-08-21T17:50:28.410Z,24.88
2022-08-21T17:52:58.710Z,24.86
2022-08-21T17:55:30.550Z,24.81
2022-08-21T17:58:02.167Z,24.75
2022-08-21T18:00:32.229Z,24.73
2022-08-21T18:03:07.337Z,24.69
2022-08-21T18:05:37.273Z,24.67
2022-08-21T18:08:06.924Z,24.64
2022-08-21T18:10:37.658Z,24.61
2022-08-21T18:13:09.246Z,24.57
2022-08-21T18:15:39.264Z,24.55
2022-08-21T18:18:09.413Z,24.53
2022-08-21T18:20:39.415Z,24.54
2022-08-21T18:23:08.738Z,24.52
2022-08-21T18:25:38.240Z,24.48
2022-08-21T18:28:09.052Z,24.43
2022-08-21T18:30:42.548Z,24.41
2022-08-21T18:33:13.323Z,24.38
2022-08-21T18:35:44.488Z,24.34
2022-08-21T18:38:19.366Z,24.33
2022-08-21T18:40:55.715Z,24.31
2022-08-21T18:43:23.021Z,24.27
2022-08-21T18:45:53.348Z,24.26
2022-08-21T18:48:26.844Z,24.22
2022-08-21T18:50:55.472Z,24.18
2022-08-21T18:53:27.987Z,24.14
2022-08-21T18:56:05.289Z,24.14
2022-08-21T18:58:33.840Z,24.09
2022-08-21T19:01:05.884Z,24.07
2022-08-21T19:03:36.073Z,24.05
2022-08-21T19:06:11.780Z,24.05
2022-08-21T19:08:38.575Z,23.99
2022-08-21T19:11:10.821Z,23.94
2022-08-21T19:13:40.672Z,23.89
2022-08-21T19:16:30.458Z,23.88
2022-08-21T19:19:02.908Z,23.85
2022-08-21T19:21:35.703Z,23.85
2022-08-21T19:24:17.276Z,23.84
2022-08-21T19:26:42.056Z,23.84
2022-08-21T19:29:14.769Z,23.82
2022-08-21T19:31:45.867Z,23.82
2022-08-21T19:34:22.073Z,23.76
2022-08-21T19:36:51.298Z,23.69
2022-08-21T19:39:23.141Z,23.63
2022-08-21T19:41:58.694Z,23.62
2022-08-21T19:44:29.457Z,23.60
2022-08-21T19:47:04.832Z,23.57
2022-08-21T19:49:34.947Z,23.57
2022-08-21T19:52:12.867Z,23.56
2022-08-21T19:54:36.367Z,23.51
2022-08-21T19:57:06.751Z,23.47
2022-08-21T19:59:37.025Z,23.45
2022-08-21T20:02:09.660Z,23.43
2022-08-21T20:04:40.622Z,23.42
2022-08-21T20:07:12.964Z,23.36
2022-08-21T20:09:45.013Z,23.33
2022-08-21T20:12:16.865Z,23.32
2022-08-21T20:14:49.661Z,23.31
2022-08-21T20:17:18.728Z,23.30
2022-08-21T20:19:53.958Z,23.28
2022-08-21T20:22:21.669Z,23.19
2022-08-21T20:24:53.064Z,23.15
2022-08-21T20:27:44.175Z,23.13
2022-08-21T20:30:18.461Z,23.09
2022-08-21T20:32:49.330Z,23.07
2022-08-21T20:35:19.511Z,23.04
2022-08-21T20:37:58.481Z,23.02
2022-08-21T20:40:21.259Z,23.00
2022-08-21T20:42:52.979Z,23.00
2022-08-21T20:45:32.355Z,22.99
2022-08-21T20:51:30.332Z,22.89
2022-08-21T20:54:20.195Z,22.87
2022-08-21T20:56:58.347Z,22.85
2022-08-21T20:59:44.864Z,22.85
2022-08-21T21:02:52.346Z,22.83
2022-08-21T21:05:27.773Z,22.82
2022-08-21T21:08:29.534Z,22.82
2022-08-21T21:11:06.279Z,22.82
2022-08-21T21:13:47.481Z,22.81
2022-08-21T21:16:22.179Z,22.78
2022-08-21T21:19:05.928Z,22.77
2022-08-21T21:21:53.907Z,22.78
2022-08-21T21:24:30.240Z,22.81
2022-08-21T21:27:20.450Z,22.80
2022-08-21T21:30:06.013Z,22.80
2022-08-21T21:32:38.934Z,22.79
2022-08-21T21:35:08.560Z,22.77
2022-08-21T21:38:04.842Z,22.79
2022-08-21T21:40:47.534Z,22.73
2022-08-21T21:43:50.012Z,22.70
2022-08-21T21:46:33.533Z,22.68
2022-08-21T21:52:10.043Z,22.62
2022-08-21T21:55:00.422Z,22.62
2022-08-21T21:57:49.585Z,22.57
2022-08-21T22:00:26.612Z,22.56
2022-08-21T22:03:03.772Z,22.53
2022-08-21T22:05:59.924Z,22.51
2022-08-21T22:08:50.538Z,22.47
2022-08-21T22:11:29.358Z,22.45
2022-08-21T22:14:14.604Z,22.42
2022-08-21T22:16:46.083Z,22.38
2022-08-21T22:19:26.413Z,22.35
2022-08-21T22:22:09.682Z,22.33
2022-08-21T22:24:43.881Z,22.29
2022-08-21T22:27:27.288Z,22.23
2022-08-21T22:29:59.409Z,22.16
2022-08-21T22:32:39.315Z,22.13
2022-08-21T22:35:23.541Z,22.14
2022-08-21T22:37:55.523Z,22.10
2022-08-21T22:40:32.418Z,22.04
2022-08-21T22:43:16.104Z,22.03
2022-08-21T22:46:07.945Z,21.98
2022-08-21T22:51:17.675Z,21.88
2022-08-21T22:53:48.391Z,21.88
2022-08-21T22:56:33.372Z,21.88
2022-08-21T22:59:06.515Z,21.87
2022-08-21T23:01:43.133Z,21.84
2022-08-21T23:04:22.123Z,21.84
2022-08-21T23:07:01.671Z,21.83
2022-08-21T23:09:36.188Z,21.80
2022-08-21T23:12:21.229Z,21.79
2022-08-21T23:14:41.119Z,21.79
2022-08-21T23:17:15.378Z,21.79
2022-08-21T23:20:10.391Z,21.79
2022-08-21T23:23:24.088Z,21.80
2022-08-21T23:26:25.210Z,21.77
2022-08-21T23:29:07.883Z,21.74
2022-08-21T23:31:51.553Z,21.70
2022-08-21T23:34:41.114Z,21.68
2022-08-21T23:37:51.404Z,21.67
2022-08-21T23:40:50.661Z,21.66
2022-08-21T23:43:51.696Z,21.68
2022-08-21T23:46:41.094Z,21.69
2022-08-21T23:49:44.217Z,21.71
2022-08-21T23:52:40.165Z,21.72
2022-08-21T23:55:35.392Z,21.64
2022-08-21T23:58:24.891Z,21.57
